DLH560 EDDF-FNBJ
Flight info
| Callsign | DLH560 |
|---|---|
| Flight time | N/A |
| Altitude | 35000 |
| Route | ANEKI2L ANEKI Y163 NATOR DCT TRA/N0462F370 DCT RIPUS DCT GERSA DCT SOSON DCT ODINA DCT PIDAD DCT TALEP DCT VAREK DCT ERPIN DCT ETOIL DCT CIRTA UA605 CSO UR978 EDAGO/N0467F390 UR978 AS UA604 DLA UG861 MESIN UY339 LIKAD UR526 VNA |
| Aircraft | A346/H-SDE2E3FGHIJ3J4J5M1P2RWXYZ/LB1D1 |
Departure
| Time | N/A |
|---|---|
| Airport | Frankfurt Main Airport (EDDF) |
Arrival
| Time | 2026-04-12 05:43 |
|---|---|
| Airport | Dr. Antonio Agostinho Neto International Airport (FNBJ) |
| Time | Latitude | Longitude | Altitude | Speed | Heading |
|---|---|---|---|---|---|
| 2026-04-12 05:10 | -6.29758 | 12.18769 | 38869 ft | 461 kts | 157° |
| 2026-04-12 05:10 | -6.32739 | 12.20001 | 38871 ft | 461 kts | 157° |
| 2026-04-12 05:11 | -6.38678 | 12.22458 | 38872 ft | 460 kts | 157° |
| 2026-04-12 05:11 | -6.44599 | 12.24908 | 38875 ft | 460 kts | 157° |
| 2026-04-12 05:12 | -6.50563 | 12.27378 | 38873 ft | 460 kts | 157° |
| 2026-04-12 05:12 | -6.56478 | 12.29829 | 38876 ft | 460 kts | 157° |
| 2026-04-12 05:13 | -6.62421 | 12.32291 | 38876 ft | 461 kts | 157° |
| 2026-04-12 05:13 | -6.68334 | 12.34741 | 38875 ft | 460 kts | 157° |
| 2026-04-12 05:14 | -6.74293 | 12.37210 | 38873 ft | 460 kts | 157° |
| 2026-04-12 05:14 | -6.80186 | 12.39653 | 38871 ft | 460 kts | 157° |
| 2026-04-12 05:15 | -6.86120 | 12.42113 | 38869 ft | 460 kts | 157° |
| 2026-04-12 05:15 | -6.92045 | 12.44570 | 38870 ft | 459 kts | 157° |
| 2026-04-12 05:16 | -6.98001 | 12.47041 | 38871 ft | 459 kts | 157° |
| 2026-04-12 05:16 | -7.03900 | 12.49490 | 38867 ft | 460 kts | 157° |
| 2026-04-12 05:17 | -7.09844 | 12.51956 | 38870 ft | 459 kts | 157° |
| 2026-04-12 05:17 | -7.12810 | 12.53186 | 38613 ft | 459 kts | 157° |
| 2026-04-12 05:17 | -7.15756 | 12.54408 | 38319 ft | 456 kts | 157° |
| 2026-04-12 05:17 | -7.18725 | 12.55641 | 38026 ft | 453 kts | 157° |
| 2026-04-12 05:18 | -7.21615 | 12.56841 | 37735 ft | 450 kts | 158° |
| 2026-04-12 05:18 | -7.24504 | 12.58040 | 37443 ft | 449 kts | 157° |
| 2026-04-12 05:18 | -7.27392 | 12.59239 | 37154 ft | 448 kts | 157° |
| 2026-04-12 05:18 | -7.30284 | 12.60439 | 36863 ft | 449 kts | 157° |
| 2026-04-12 05:19 | -7.33157 | 12.61722 | 36500 ft | 448 kts | 152° |
| 2026-04-12 05:19 | -7.35807 | 12.63394 | 35586 ft | 453 kts | 146° |
| 2026-04-12 05:19 | -7.38389 | 12.65222 | 34236 ft | 467 kts | 144° |
| 2026-04-12 05:19 | -7.41057 | 12.67147 | 32870 ft | 478 kts | 144° |
| 2026-04-12 05:20 | -7.43807 | 12.69129 | 31778 ft | 485 kts | 144° |
| 2026-04-12 05:20 | -7.46529 | 12.71082 | 30830 ft | 488 kts | 144° |
| 2026-04-12 05:20 | -7.49297 | 12.73058 | 29854 ft | 491 kts | 144° |
| 2026-04-12 05:20 | -7.52096 | 12.75051 | 28834 ft | 495 kts | 144° |
| 2026-04-12 05:21 | -7.54907 | 12.77050 | 27924 ft | 496 kts | 144° |
| 2026-04-12 05:21 | -7.57742 | 12.79065 | 27173 ft | 494 kts | 144° |
| 2026-04-12 05:21 | -7.60527 | 12.81042 | 26596 ft | 488 kts | 144° |
| 2026-04-12 05:21 | -7.63276 | 12.82993 | 26125 ft | 480 kts | 144° |
| 2026-04-12 05:22 | -7.65987 | 12.84917 | 25619 ft | 475 kts | 143° |
| 2026-04-12 05:22 | -7.68710 | 12.86851 | 25009 ft | 471 kts | 143° |
| 2026-04-12 05:22 | -7.71372 | 12.88740 | 24397 ft | 468 kts | 143° |
| 2026-04-12 05:22 | -7.74015 | 12.90615 | 23810 ft | 464 kts | 143° |
| 2026-04-12 05:23 | -7.76663 | 12.92496 | 23232 ft | 461 kts | 143° |
| 2026-04-12 05:23 | -7.79270 | 12.94346 | 22655 ft | 457 kts | 143° |
| 2026-04-12 05:23 | -7.81856 | 12.96182 | 22061 ft | 455 kts | 143° |
| 2026-04-12 05:23 | -7.84427 | 12.98007 | 21486 ft | 452 kts | 143° |
| 2026-04-12 05:24 | -7.87012 | 12.99843 | 20952 ft | 449 kts | 143° |
| 2026-04-12 05:24 | -7.89522 | 13.01628 | 20466 ft | 444 kts | 143° |
| 2026-04-12 05:24 | -7.92052 | 13.03424 | 19999 ft | 438 kts | 143° |
| 2026-04-12 05:24 | -7.94534 | 13.05187 | 19543 ft | 433 kts | 143° |
| 2026-04-12 05:25 | -7.96987 | 13.06929 | 19094 ft | 428 kts | 142° |
| 2026-04-12 05:25 | -7.99397 | 13.08643 | 18649 ft | 423 kts | 142° |
| 2026-04-12 05:25 | -8.01783 | 13.10339 | 18207 ft | 419 kts | 142° |
| 2026-04-12 05:25 | -8.04165 | 13.12032 | 17757 ft | 415 kts | 142° |
| 2026-04-12 05:26 | -8.06519 | 13.13708 | 17324 ft | 411 kts | 142° |
| 2026-04-12 05:26 | -8.08833 | 13.15355 | 16897 ft | 407 kts | 142° |
| 2026-04-12 05:26 | -8.11155 | 13.17007 | 16457 ft | 403 kts | 142° |
| 2026-04-12 05:26 | -8.13445 | 13.18637 | 16012 ft | 399 kts | 142° |
| 2026-04-12 05:27 | -8.15699 | 13.20242 | 15578 ft | 396 kts | 142° |
| 2026-04-12 05:27 | -8.17943 | 13.21839 | 15145 ft | 392 kts | 142° |
| 2026-04-12 05:27 | -8.20167 | 13.23422 | 14704 ft | 389 kts | 142° |
| 2026-04-12 05:27 | -8.22362 | 13.24986 | 14273 ft | 386 kts | 142° |
| 2026-04-12 05:28 | -8.24568 | 13.26558 | 13835 ft | 383 kts | 142° |
| 2026-04-12 05:28 | -8.26720 | 13.28091 | 13394 ft | 380 kts | 142° |
| 2026-04-12 05:28 | -8.28883 | 13.29631 | 12955 ft | 377 kts | 142° |
| 2026-04-12 05:28 | -8.31021 | 13.31156 | 12513 ft | 374 kts | 142° |
| 2026-04-12 05:29 | -8.33164 | 13.32681 | 12049 ft | 372 kts | 142° |
| 2026-04-12 05:29 | -8.35279 | 13.34189 | 11595 ft | 369 kts | 143° |
| 2026-04-12 05:29 | -8.37351 | 13.35667 | 11143 ft | 367 kts | 142° |
| 2026-04-12 05:29 | -8.39425 | 13.37145 | 10772 ft | 361 kts | 143° |
| 2026-04-12 05:30 | -8.41470 | 13.38600 | 10465 ft | 353 kts | 143° |
| 2026-04-12 05:30 | -8.43439 | 13.40002 | 10291 ft | 341 kts | 143° |
| 2026-04-12 05:30 | -8.45345 | 13.41359 | 10217 ft | 327 kts | 143° |
| 2026-04-12 05:30 | -8.47178 | 13.42664 | 10153 ft | 313 kts | 143° |
| 2026-04-12 05:31 | -8.48926 | 13.43911 | 10096 ft | 299 kts | 142° |
| 2026-04-12 05:31 | -8.50596 | 13.45100 | 10049 ft | 286 kts | 142° |
| 2026-04-12 05:31 | -8.52192 | 13.46239 | 10016 ft | 278 kts | 142° |
| 2026-04-12 05:31 | -8.53772 | 13.47369 | 9812 ft | 278 kts | 142° |
| 2026-04-12 05:32 | -8.55351 | 13.48497 | 9466 ft | 279 kts | 142° |
| 2026-04-12 05:32 | -8.56945 | 13.49636 | 9140 ft | 279 kts | 143° |
| 2026-04-12 05:32 | -8.58531 | 13.50768 | 8830 ft | 278 kts | 143° |
| 2026-04-12 05:32 | -8.60113 | 13.51896 | 8523 ft | 277 kts | 143° |
| 2026-04-12 05:33 | -8.61677 | 13.53012 | 8222 ft | 276 kts | 143° |
| 2026-04-12 05:33 | -8.63239 | 13.54128 | 7921 ft | 275 kts | 143° |
| 2026-04-12 05:33 | -8.64819 | 13.55256 | 7620 ft | 274 kts | 142° |
| 2026-04-12 05:33 | -8.66356 | 13.56353 | 7326 ft | 272 kts | 143° |
| 2026-04-12 05:34 | -8.67918 | 13.57468 | 7030 ft | 271 kts | 143° |
| 2026-04-12 05:34 | -8.69452 | 13.58564 | 6744 ft | 269 kts | 143° |
| 2026-04-12 05:34 | -8.70957 | 13.59638 | 6684 ft | 256 kts | 143° |
| 2026-04-12 05:34 | -8.72381 | 13.60652 | 6682 ft | 242 kts | 143° |
| 2026-04-12 05:35 | -8.73730 | 13.61615 | 6681 ft | 232 kts | 142° |
| 2026-04-12 05:35 | -8.74985 | 13.62638 | 6609 ft | 232 kts | 136° |
| 2026-04-12 05:35 | -8.76177 | 13.63754 | 6313 ft | 233 kts | 135° |
| 2026-04-12 05:35 | -8.77350 | 13.64874 | 6030 ft | 233 kts | 135° |
| 2026-04-12 05:36 | -8.78526 | 13.65997 | 5752 ft | 232 kts | 135° |
| 2026-04-12 05:36 | -8.79701 | 13.67115 | 5479 ft | 231 kts | 135° |
| 2026-04-12 05:36 | -8.80878 | 13.68233 | 5210 ft | 230 kts | 135° |
| 2026-04-12 05:36 | -8.82047 | 13.69341 | 4944 ft | 229 kts | 135° |
| 2026-04-12 05:37 | -8.83225 | 13.70456 | 4675 ft | 228 kts | 136° |
| 2026-04-12 05:37 | -8.84401 | 13.71514 | 4398 ft | 228 kts | 148° |
| 2026-04-12 05:37 | -8.85916 | 13.71976 | 4098 ft | 230 kts | 180° |
| 2026-04-12 05:37 | -8.87437 | 13.71525 | 3980 ft | 226 kts | 211° |
| 2026-04-12 05:38 | -8.88643 | 13.70479 | 3983 ft | 229 kts | 227° |
| 2026-04-12 05:38 | -8.89635 | 13.69238 | 3972 ft | 221 kts | 231° |
| 2026-04-12 05:38 | -8.90532 | 13.67998 | 3975 ft | 219 kts | 232° |
| 2026-04-12 05:38 | -8.91431 | 13.66745 | 3977 ft | 219 kts | 232° |
| 2026-04-12 05:39 | -8.92337 | 13.65498 | 3971 ft | 220 kts | 231° |
| 2026-04-12 05:39 | -8.93231 | 13.64280 | 3811 ft | 213 kts | 231° |
| 2026-04-12 05:39 | -8.94117 | 13.63084 | 3538 ft | 210 kts | 231° |
| 2026-04-12 05:39 | -8.94997 | 13.61899 | 3268 ft | 207 kts | 231° |
| 2026-04-12 05:40 | -8.95853 | 13.60750 | 3004 ft | 204 kts | 231° |
| 2026-04-12 05:40 | -8.96699 | 13.59613 | 2742 ft | 202 kts | 231° |
| 2026-04-12 05:40 | -8.97529 | 13.58495 | 2474 ft | 193 kts | 231° |
| 2026-04-12 05:40 | -8.98318 | 13.57432 | 2223 ft | 181 kts | 231° |
| 2026-04-12 05:41 | -8.99048 | 13.56449 | 1999 ft | 169 kts | 230° |
| 2026-04-12 05:41 | -8.99736 | 13.55524 | 1781 ft | 158 kts | 230° |
| 2026-04-12 05:41 | -9.00400 | 13.54649 | 1546 ft | 156 kts | 230° |
| 2026-04-12 05:41 | -9.01055 | 13.53779 | 1345 ft | 156 kts | 230° |
| 2026-04-12 05:42 | -9.01706 | 13.52886 | 1207 ft | 156 kts | 232° |
| 2026-04-12 05:42 | -9.02346 | 13.52002 | 1021 ft | 156 kts | 230° |
| 2026-04-12 05:42 | -9.03010 | 13.51123 | 818 ft | 157 kts | 233° |
| 2026-04-12 05:43 | -9.04279 | 13.49413 | 556 ft | 123 kts | 231° |
| 2026-04-12 05:43 | -9.04696 | 13.48882 | 555 ft | 63 kts | 212° |
| 2026-04-12 05:43 | -9.04871 | 13.48798 | 557 ft | 13 kts | 201° |
| 2026-04-12 05:43 | -9.04938 | 13.48811 | 557 ft | 8 kts | 127° |
| 2026-04-12 05:44 | -9.04990 | 13.48865 | 558 ft | 13 kts | 137° |
| 2026-04-12 05:44 | -9.05078 | 13.48935 | 561 ft | 18 kts | 144° |
| 2026-04-12 05:44 | -9.05187 | 13.49012 | 563 ft | 19 kts | 144° |
| 2026-04-12 05:44 | -9.05297 | 13.49096 | 564 ft | 20 kts | 142° |
| 2026-04-12 05:45 | -9.05414 | 13.49189 | 564 ft | 22 kts | 142° |
| 2026-04-12 05:45 | -9.05542 | 13.49292 | 563 ft | 21 kts | 141° |
| 2026-04-12 05:45 | -9.05606 | 13.49365 | 563 ft | 8 kts | 86° |
| 2026-04-12 05:45 | -9.05581 | 13.49413 | 564 ft | 10 kts | 54° |
| 2026-04-12 05:46 | -9.05524 | 13.49494 | 564 ft | 12 kts | 56° |
| 2026-04-12 05:46 | -9.05492 | 13.49567 | 565 ft | 10 kts | 97° |
| 2026-04-12 05:46 | -9.05508 | 13.49641 | 565 ft | 11 kts | 94° |
| 2026-04-12 05:46 | -9.05506 | 13.49700 | 566 ft | 7 kts | 84° |
| 2026-04-12 05:47 | -9.05505 | 13.49715 | 566 ft | 0 kts | 86° |